createdAt,value
2017-11-01T00:01:05.358Z,16.50
2017-11-01T00:03:34.049Z,16.50
2017-11-01T00:06:02.736Z,16.50
2017-11-01T00:08:32.445Z,16.50
2017-11-01T00:11:01.129Z,16.50
2017-11-01T00:13:30.842Z,16.40
2017-11-01T00:15:59.736Z,16.40
2017-11-01T00:18:28.413Z,16.40
2017-11-01T00:20:57.147Z,16.40
2017-11-01T00:23:25.890Z,16.40
2017-11-01T00:25:54.676Z,16.30
2017-11-01T00:28:23.464Z,16.40
2017-11-01T00:30:52.153Z,16.40
2017-11-01T00:33:20.837Z,16.50
2017-11-01T00:35:49.532Z,16.40
2017-11-01T00:38:18.624Z,16.40
2017-11-01T00:40:48.279Z,16.40
2017-11-01T00:43:17.016Z,16.40
2017-11-01T00:45:46.015Z,16.40
2017-11-01T00:48:15.012Z,16.40
2017-11-01T00:50:44.461Z,16.40
2017-11-01T00:53:14.123Z,16.40
2017-11-01T00:55:42.944Z,16.40
2017-11-01T00:58:11.643Z,16.40
2017-11-01T01:00:40.380Z,16.40
2017-11-01T01:03:10.142Z,16.40
2017-11-01T01:05:38.889Z,16.30
2017-11-01T01:08:07.711Z,16.30
2017-11-01T01:10:36.607Z,16.30
2017-11-01T01:13:06.067Z,16.30
2017-11-01T01:15:34.855Z,16.30
2017-11-01T01:18:04.578Z,16.30
2017-11-01T01:20:33.250Z,16.30
2017-11-01T01:23:03.640Z,16.30
2017-11-01T01:25:32.365Z,16.30
2017-11-01T01:28:01.317Z,16.30
2017-11-01T01:30:30.195Z,16.30
2017-11-01T01:32:59.035Z,16.20
2017-11-01T01:35:27.722Z,16.20
2017-11-01T01:37:56.553Z,16.20
2017-11-01T01:40:25.299Z,16.30
2017-11-01T01:42:54.190Z,16.20
2017-11-01T01:45:23.285Z,16.30
2017-11-01T01:47:51.973Z,16.20
2017-11-01T01:50:20.665Z,16.20
2017-11-01T01:52:49.756Z,16.20
2017-11-01T01:55:18.549Z,16.20
2017-11-01T01:57:47.436Z,16.10
2017-11-01T02:00:16.532Z,16.10
2017-11-01T02:02:46.244Z,16.10
2017-11-01T02:05:15.132Z,16.10
2017-11-01T02:07:44.023Z,16.10
2017-11-01T02:10:14.761Z,16.10
2017-11-01T02:12:43.647Z,16.10
2017-11-01T02:15:13.358Z,16.10
2017-11-01T02:17:42.863Z,16.10
2017-11-01T02:20:12.776Z,16.00
2017-11-01T02:22:41.573Z,16.00
2017-11-01T02:25:10.458Z,16.00
2017-11-01T02:27:39.351Z,16.00
2017-11-01T02:30:08.447Z,16.00
2017-11-01T02:32:37.336Z,16.00
2017-11-01T02:35:06.231Z,16.00
2017-11-01T02:37:35.120Z,16.00
2017-11-01T02:40:04.008Z,15.90
2017-11-01T02:42:33.721Z,15.90
2017-11-01T02:45:02.758Z,15.90
2017-11-01T02:47:31.705Z,15.90
2017-11-01T02:50:00.808Z,15.90
2017-11-01T02:52:30.512Z,15.90
2017-11-01T02:54:59.645Z,15.80
2017-11-01T02:57:28.806Z,15.90
2017-11-01T02:59:57.595Z,15.90
2017-11-01T03:02:29.354Z,15.90
2017-11-01T03:04:58.348Z,15.90
2017-11-01T03:07:27.239Z,15.90
2017-11-01T03:09:56.131Z,15.90
2017-11-01T03:12:25.023Z,16.00
2017-11-01T03:14:53.746Z,15.90
2017-11-01T03:17:23.421Z,16.00
2017-11-01T03:19:52.311Z,16.00
2017-11-01T03:22:21.509Z,16.00
2017-11-01T03:24:51.169Z,16.00
2017-11-01T03:27:20.330Z,16.00
2017-11-01T03:29:49.410Z,15.90
2017-11-01T03:32:18.494Z,15.90
2017-11-01T03:34:47.831Z,15.90
2017-11-01T03:37:16.827Z,15.90
2017-11-01T03:39:45.892Z,15.80
2017-11-01T03:42:15.091Z,15.80
2017-11-01T03:44:44.028Z,15.90
2017-11-01T03:47:12.981Z,15.90
2017-11-01T03:49:41.984Z,15.90
2017-11-01T03:52:11.212Z,15.90
2017-11-01T03:54:40.668Z,15.90
2017-11-01T03:57:09.562Z,16.00
2017-11-01T03:59:39.274Z,15.90
2017-11-01T04:02:08.162Z,15.80
2017-11-01T04:04:38.080Z,15.90
2017-11-01T04:07:07.688Z,15.80
2017-11-01T04:09:36.785Z,15.90
2017-11-01T04:12:06.707Z,15.90
2017-11-01T04:14:35.801Z,15.80
2017-11-01T04:17:05.200Z,15.90
2017-11-01T04:19:37.061Z,15.90
2017-11-01T04:22:05.930Z,15.90
2017-11-01T04:24:34.842Z,15.90
2017-11-01T04:27:03.735Z,15.80
2017-11-01T04:29:33.647Z,15.80
2017-11-01T04:32:02.854Z,15.80
2017-11-01T04:34:32.049Z,15.90
2017-11-01T04:37:01.036Z,15.90
2017-11-01T04:39:31.173Z,15.90
2017-11-01T04:42:01.788Z,15.80
2017-11-01T04:44:30.786Z,15.80
2017-11-01T04:47:00.629Z,15.80
2017-11-01T04:49:29.804Z,15.80
2017-11-01T04:51:59.337Z,15.80
2017-11-01T04:54:29.385Z,15.80
2017-11-01T04:56:59.180Z,15.80
2017-11-01T04:59:28.539Z,15.70
2017-11-01T05:01:57.785Z,15.80
2017-11-01T05:04:26.748Z,15.80
2017-11-01T05:06:57.705Z,15.70
2017-11-01T05:09:26.555Z,15.80
2017-11-01T05:11:55.551Z,15.70
2017-11-01T05:14:29.503Z,15.80
2017-11-01T05:16:59.340Z,15.70
2017-11-01T05:19:28.552Z,15.70
2017-11-01T05:21:58.584Z,15.70
2017-11-01T05:24:30.859Z,15.60
2017-11-01T05:27:00.979Z,15.60
2017-11-01T05:29:30.554Z,15.60
2017-11-01T05:31:59.732Z,15.50
2017-11-01T05:34:30.413Z,15.60
2017-11-01T05:37:00.653Z,15.60
2017-11-01T05:39:29.834Z,15.60
2017-11-01T05:41:59.459Z,15.60
2017-11-01T05:44:29.200Z,15.50
2017-11-01T05:46:59.154Z,15.50
2017-11-01T05:49:28.212Z,15.50
2017-11-01T05:51:57.468Z,15.50
2017-11-01T05:54:26.706Z,15.40
2017-11-01T05:56:55.866Z,15.40
2017-11-01T05:59:24.892Z,15.40
2017-11-01T06:01:54.069Z,15.40
2017-11-01T06:04:22.944Z,15.40
2017-11-01T06:06:51.841Z,15.40
2017-11-01T06:09:21.101Z,15.40
2017-11-01T06:11:52.655Z,15.40
2017-11-01T06:14:21.681Z,15.50
2017-11-01T06:16:50.927Z,15.50
2017-11-01T06:19:19.878Z,15.40
2017-11-01T06:21:49.672Z,15.40
2017-11-01T06:24:19.271Z,15.40
2017-11-01T06:26:48.810Z,15.40
2017-11-01T06:29:18.845Z,15.40
2017-11-01T06:31:47.864Z,15.40
2017-11-01T06:34:16.905Z,15.40
2017-11-01T06:36:47.438Z,15.50
2017-11-01T06:39:17.247Z,15.40
2017-11-01T06:41:47.878Z,15.40
2017-11-01T06:44:16.769Z,15.40
2017-11-01T06:46:45.664Z,15.40
2017-11-01T06:49:14.653Z,15.40
2017-11-01T06:51:44.365Z,15.60
2017-11-01T06:54:13.359Z,15.50
2017-11-01T06:56:41.997Z,15.60
2017-11-01T06:59:10.737Z,15.70
2017-11-01T07:01:40.449Z,15.70
2017-11-01T07:04:09.333Z,15.70
2017-11-01T07:06:38.017Z,15.80
2017-11-01T07:09:09.981Z,15.80
2017-11-01T07:11:38.872Z,15.80
2017-11-01T07:14:07.765Z,15.90
2017-11-01T07:16:36.669Z,16.00
2017-11-01T07:19:06.572Z,16.00
2017-11-01T07:21:35.308Z,16.00
2017-11-01T07:24:04.981Z,16.20
2017-11-01T07:26:33.917Z,16.20
2017-11-01T07:29:02.851Z,16.30
2017-11-01T07:31:31.947Z,16.40
2017-11-01T07:34:00.583Z,16.40
2017-11-01T07:36:29.731Z,16.50
2017-11-01T07:38:58.629Z,16.50
2017-11-01T07:41:27.520Z,16.40
2017-11-01T07:43:56.136Z,16.40
2017-11-01T07:46:24.837Z,16.50
2017-11-01T07:48:54.698Z,16.60
2017-11-01T07:51:29.238Z,16.80
2017-11-01T07:53:58.960Z,16.80
2017-11-01T07:56:27.684Z,16.90
2017-11-01T07:58:56.511Z,16.90
2017-11-01T08:01:25.709Z,17.00
2017-11-01T08:03:54.499Z,17.00
2017-11-01T08:06:23.385Z,17.00
2017-11-01T08:08:52.077Z,17.00
2017-11-01T08:11:20.878Z,16.90
2017-11-01T08:13:49.753Z,16.90
2017-11-01T08:16:18.453Z,16.90
2017-11-01T08:18:47.301Z,16.90
2017-11-01T08:21:16.029Z,16.90
2017-11-01T08:23:44.902Z,17.00
2017-11-01T08:26:15.431Z,17.30
2017-11-01T08:28:44.323Z,17.30
2017-11-01T08:31:13.009Z,17.20
2017-11-01T08:33:41.900Z,17.30
2017-11-01T08:36:10.587Z,17.40
2017-11-01T08:38:39.477Z,17.50
2017-11-01T08:41:09.140Z,17.80
2017-11-01T08:43:37.875Z,17.80
2017-11-01T08:46:06.573Z,17.90
2017-11-01T08:48:35.458Z,18.00
2017-11-01T08:51:04.380Z,18.10
2017-11-01T08:53:34.667Z,18.20
2017-11-01T08:56:03.558Z,18.20
2017-11-01T08:58:32.593Z,18.20
2017-11-01T09:01:02.029Z,18.20
2017-11-01T09:03:30.786Z,18.20
2017-11-01T09:06:00.316Z,18.30
2017-11-01T09:08:29.191Z,18.30
2017-11-01T09:10:57.932Z,18.30
2017-11-01T09:13:26.770Z,18.20
2017-11-01T09:15:55.509Z,18.30
2017-11-01T09:18:24.811Z,18.40
2017-11-01T09:20:54.148Z,18.50
2017-11-01T09:23:23.826Z,18.50
2017-11-01T09:25:52.710Z,18.50
2017-11-01T09:28:21.395Z,18.60
2017-11-01T09:30:50.287Z,18.70
2017-11-01T09:33:19.192Z,18.70
2017-11-01T09:35:47.863Z,18.60
2017-11-01T09:38:16.453Z,18.70
2017-11-01T09:40:45.422Z,18.60
2017-11-01T09:43:14.129Z,18.70
2017-11-01T09:45:42.815Z,18.60
2017-11-01T09:48:11.614Z,18.60
2017-11-01T09:50:40.388Z,18.60
2017-11-01T09:53:09.496Z,18.70
2017-11-01T09:55:38.380Z,18.70
2017-11-01T09:58:07.064Z,18.80
2017-11-01T10:00:35.760Z,18.90
2017-11-01T10:03:04.641Z,18.90
2017-11-01T10:05:33.331Z,19.00
2017-11-01T10:08:02.219Z,19.00
2017-11-01T10:10:31.107Z,19.00
2017-11-01T10:12:59.752Z,19.20
2017-11-01T10:15:29.197Z,18.80
2017-11-01T10:17:58.089Z,18.80
2017-11-01T10:20:26.981Z,18.80
2017-11-01T10:22:56.881Z,19.20
2017-11-01T10:25:25.790Z,19.20
2017-11-01T10:27:55.231Z,19.30
2017-11-01T10:30:24.080Z,19.40
2017-11-01T10:32:52.970Z,19.40
2017-11-01T10:35:21.777Z,19.30
2017-11-01T10:37:52.189Z,19.00
2017-11-01T10:40:21.076Z,19.10
2017-11-01T10:42:49.915Z,17.30
2017-11-01T10:45:19.682Z,19.50
2017-11-01T10:47:48.518Z,19.40
2017-11-01T10:50:17.260Z,19.60
2017-11-01T10:52:46.150Z,19.70
2017-11-01T10:55:15.319Z,19.70
2017-11-01T10:57:44.154Z,19.50
2017-11-01T11:00:14.266Z,19.30
2017-11-01T11:02:43.151Z,19.30
2017-11-01T11:05:11.834Z,19.40
2017-11-01T11:07:40.627Z,19.50
2017-11-01T11:10:09.513Z,19.40
2017-11-01T11:12:38.303Z,19.60
2017-11-01T11:15:06.984Z,19.70
2017-11-01T11:17:35.885Z,19.90
2017-11-01T11:20:04.768Z,19.90
2017-11-01T11:22:33.456Z,19.90
2017-11-01T11:25:02.248Z,19.90
2017-11-01T11:27:31.137Z,19.60
2017-11-01T11:30:00.126Z,19.90
2017-11-01T11:32:29.016Z,20.00
2017-11-01T11:34:57.908Z,20.00
2017-11-01T11:40:24.164Z,19.90
2017-11-01T11:42:52.844Z,20.00
2017-11-01T11:45:21.502Z,20.10
2017-11-01T11:47:50.222Z,20.10
2017-11-01T11:50:19.109Z,20.30
2017-11-01T11:52:47.948Z,20.40
2017-11-01T11:55:16.787Z,20.50
2017-11-01T11:57:45.788Z,20.60
2017-11-01T12:00:15.111Z,20.50
2017-11-01T12:02:44.193Z,20.70
2017-11-01T12:05:13.072Z,20.70
2017-11-01T12:07:41.771Z,20.60
2017-11-01T12:10:10.647Z,20.70
2017-11-01T12:12:39.539Z,20.80
2017-11-01T12:15:08.428Z,20.70
2017-11-01T12:17:37.319Z,20.80
2017-11-01T12:20:06.013Z,20.60
2017-11-01T12:22:34.700Z,20.80
2017-11-01T12:28:12.855Z,20.50
2017-11-01T12:30:41.741Z,20.90
2017-11-01T12:33:10.433Z,20.90
2017-11-01T12:35:39.323Z,20.50
2017-11-01T12:38:08.165Z,20.60
2017-11-01T12:40:37.668Z,20.90
2017-11-01T12:43:06.409Z,20.90
2017-11-01T12:45:35.299Z,21.10
2017-11-01T12:48:03.984Z,20.90
2017-11-01T12:50:32.663Z,21.10
2017-11-01T12:53:01.351Z,21.30
2017-11-01T12:55:30.035Z,21.20
2017-11-01T12:57:58.781Z,20.80
2017-11-01T13:00:27.516Z,20.60
2017-11-01T13:02:56.197Z,20.60
2017-11-01T13:05:24.885Z,20.80
2017-11-01T13:07:53.569Z,20.70
2017-11-01T13:10:22.464Z,20.70
2017-11-01T13:12:51.352Z,21.00
2017-11-01T13:15:20.048Z,20.50
2017-11-01T13:17:48.929Z,20.50
2017-11-01T13:20:18.026Z,20.50
2017-11-01T13:22:47.227Z,20.70
2017-11-01T13:25:16.020Z,21.80
2017-11-01T13:27:44.960Z,23.40
2017-11-01T13:30:14.618Z,23.90
2017-11-01T13:32:43.302Z,23.90
2017-11-01T13:35:13.934Z,23.30
2017-11-01T13:37:42.631Z,23.30
2017-11-01T13:40:11.515Z,22.50
2017-11-01T13:42:40.607Z,22.60
2017-11-01T13:45:09.497Z,22.60
2017-11-01T13:47:38.181Z,23.30
2017-11-01T13:50:07.009Z,23.40
2017-11-01T13:52:35.948Z,22.50
2017-11-01T13:55:04.822Z,22.50
2017-11-01T13:57:33.751Z,22.50
2017-11-01T14:00:02.647Z,22.70
2017-11-01T14:02:32.141Z,22.20
2017-11-01T14:05:01.036Z,22.20
2017-11-01T14:07:29.721Z,22.30
2017-11-01T14:09:58.360Z,22.00
2017-11-01T14:12:27.303Z,21.90
2017-11-01T14:14:55.988Z,22.00
2017-11-01T14:17:24.876Z,21.70
2017-11-01T14:19:53.563Z,21.10
2017-11-01T14:22:22.244Z,21.00
2017-11-01T14:24:50.943Z,20.80
2017-11-01T14:27:20.835Z,20.90
2017-11-01T14:29:49.487Z,20.60
2017-11-01T14:32:18.222Z,20.30
2017-11-01T14:34:47.734Z,20.20
2017-11-01T14:37:16.414Z,20.10
2017-11-01T14:39:45.098Z,20.00
2017-11-01T14:42:13.947Z,20.00
2017-11-01T14:44:42.676Z,20.10
2017-11-01T14:47:11.363Z,20.00
2017-11-01T14:49:40.048Z,19.90
2017-11-01T14:52:08.836Z,20.00
2017-11-01T14:54:37.832Z,20.10
2017-11-01T14:57:06.723Z,20.20
2017-11-01T14:59:35.662Z,20.20
2017-11-01T15:02:05.119Z,20.00
2017-11-01T15:04:33.803Z,20.00
2017-11-01T15:07:02.493Z,20.00
2017-11-01T15:09:31.277Z,19.90
2017-11-01T15:12:00.168Z,19.90
2017-11-01T15:14:29.032Z,19.70
2017-11-01T15:16:57.854Z,19.70
2017-11-01T15:19:26.745Z,19.80
2017-11-01T15:21:55.472Z,19.90
2017-11-01T15:24:24.218Z,19.90
2017-11-01T15:26:53.059Z,19.80
2017-11-01T15:29:22.509Z,19.70
2017-11-01T15:31:51.407Z,19.60
2017-11-01T15:34:20.633Z,19.70
2017-11-01T15:36:49.536Z,19.80
2017-11-01T15:39:19.097Z,19.90
2017-11-01T15:41:53.721Z,19.90
2017-11-01T15:44:22.628Z,19.90
2017-11-01T15:46:51.302Z,19.90
2017-11-01T15:49:20.212Z,19.90
2017-11-01T15:51:49.698Z,19.80
2017-11-01T15:54:18.801Z,19.80
2017-11-01T15:56:47.989Z,19.90
2017-11-01T15:59:16.824Z,19.90
2017-11-01T16:01:46.592Z,19.80
2017-11-01T16:04:15.485Z,19.60
2017-11-01T16:06:44.330Z,19.60
2017-11-01T16:09:13.883Z,19.50
2017-11-01T16:11:43.075Z,19.40
2017-11-01T16:14:11.969Z,19.40
2017-11-01T16:16:40.662Z,19.40
2017-11-01T16:19:10.569Z,19.50
2017-11-01T16:21:39.466Z,19.50
2017-11-01T16:24:08.343Z,19.40
2017-11-01T16:26:38.885Z,19.50
2017-11-01T16:29:07.944Z,19.40
2017-11-01T16:31:36.891Z,19.40
2017-11-01T16:34:05.616Z,19.40
2017-11-01T16:36:34.344Z,19.30
2017-11-01T16:39:03.233Z,19.20
2017-11-01T16:41:32.858Z,19.20
2017-11-01T16:44:01.849Z,19.20
2017-11-01T16:46:31.342Z,19.20
2017-11-01T16:49:01.374Z,19.10
2017-11-01T16:51:30.876Z,19.10
2017-11-01T16:54:00.335Z,19.00
2017-11-01T16:56:29.791Z,19.00
2017-11-01T16:58:59.905Z,19.00
2017-11-01T17:01:29.410Z,18.90
2017-11-01T17:03:58.883Z,18.90
2017-11-01T17:06:27.954Z,19.00
2017-11-01T17:08:57.431Z,19.00
2017-11-01T17:11:27.396Z,19.00
2017-11-01T17:13:56.639Z,18.90
2017-11-01T17:16:25.782Z,19.00
2017-11-01T17:18:55.633Z,18.80
2017-11-01T17:21:24.320Z,18.80
2017-11-01T17:23:53.206Z,18.80
2017-11-01T17:26:22.099Z,18.80
2017-11-01T17:28:50.985Z,18.80
2017-11-01T17:31:19.879Z,18.90
2017-11-01T17:33:48.773Z,18.80
2017-11-01T17:36:18.684Z,18.80
2017-11-01T17:38:48.120Z,18.80
2017-11-01T17:41:17.775Z,18.80
2017-11-01T17:43:46.865Z,18.80
2017-11-01T17:46:16.154Z,18.80
2017-11-01T17:48:45.057Z,18.80
2017-11-01T17:51:14.564Z,18.70
2017-11-01T17:53:43.586Z,18.70
2017-11-01T17:56:12.271Z,18.70
2017-11-01T17:58:41.985Z,18.70
2017-11-01T18:01:10.980Z,18.70
2017-11-01T18:03:39.975Z,18.70
2017-11-01T18:06:08.815Z,18.80
2017-11-01T18:08:37.819Z,18.80
2017-11-01T18:11:07.990Z,18.70
2017-11-01T18:13:37.890Z,18.80
2017-11-01T18:16:06.678Z,18.70
2017-11-01T18:18:36.181Z,18.80
2017-11-01T18:21:05.546Z,18.80
2017-11-01T18:23:35.095Z,18.80
2017-11-01T18:26:04.107Z,18.80
2017-11-01T18:28:34.721Z,18.80
2017-11-01T18:31:04.840Z,18.70
2017-11-01T18:33:33.689Z,18.70
2017-11-01T18:36:02.779Z,18.70
2017-11-01T18:38:32.190Z,18.70
2017-11-01T18:41:01.713Z,18.70
2017-11-01T18:43:30.725Z,18.70
2017-11-01T18:45:59.614Z,18.60
2017-11-01T18:48:29.698Z,18.60
2017-11-01T18:50:59.658Z,18.50
2017-11-01T18:53:28.949Z,18.60
2017-11-01T18:55:57.928Z,18.60
2017-11-01T18:58:27.290Z,18.50
2017-11-01T19:00:56.237Z,18.50
2017-11-01T19:03:25.363Z,18.50
2017-11-01T19:05:54.344Z,18.50
2017-11-01T19:08:23.237Z,18.60
2017-11-01T19:10:52.212Z,18.60
2017-11-01T19:13:21.106Z,18.50
2017-11-01T19:15:49.961Z,18.50
2017-11-01T19:18:18.985Z,18.60
2017-11-01T19:20:48.624Z,18.60
2017-11-01T19:23:20.629Z,18.50
2017-11-01T19:25:50.478Z,18.50
2017-11-01T19:28:25.357Z,18.50
2017-11-01T19:30:54.714Z,18.40
2017-11-01T19:33:23.822Z,18.40
2017-11-01T19:35:53.320Z,18.40
2017-11-01T19:38:22.403Z,18.40
2017-11-01T19:40:51.676Z,18.40
2017-11-01T19:43:21.997Z,18.50
2017-11-01T19:45:51.092Z,18.40
2017-11-01T19:48:19.821Z,18.50
2017-11-01T19:50:49.268Z,18.50
2017-11-01T19:53:18.250Z,18.50
2017-11-01T19:55:49.069Z,18.50
2017-11-01T19:58:18.037Z,18.50
2017-11-01T20:00:47.105Z,18.50
2017-11-01T20:03:17.379Z,18.50
2017-11-01T20:05:47.276Z,18.50
2017-11-01T20:08:17.308Z,18.50
2017-11-01T20:10:46.531Z,18.50
2017-11-01T20:13:16.157Z,18.60
2017-11-01T20:15:45.987Z,18.60
2017-11-01T20:18:15.275Z,18.60
2017-11-01T20:20:45.165Z,18.60
2017-11-01T20:23:14.905Z,18.60
2017-11-01T20:25:44.187Z,18.60
2017-11-01T20:28:14.056Z,18.60
2017-11-01T20:30:43.040Z,18.60
2017-11-01T20:33:11.833Z,18.60
2017-11-01T20:35:40.726Z,18.50
2017-11-01T20:38:09.922Z,18.50
2017-11-01T20:40:39.117Z,18.50
2017-11-01T20:43:08.011Z,18.50
2017-11-01T20:45:37.293Z,18.40
2017-11-01T20:48:08.987Z,18.40
2017-11-01T20:50:37.958Z,18.40
2017-11-01T20:53:06.820Z,18.40
2017-11-01T20:55:35.740Z,18.40
2017-11-01T20:58:05.319Z,18.40
2017-11-01T21:00:34.404Z,18.40
2017-11-01T21:03:03.890Z,18.30
2017-11-01T21:05:33.344Z,18.40
2017-11-01T21:08:03.268Z,18.30
2017-11-01T21:10:32.446Z,18.30
2017-11-01T21:13:02.783Z,18.30
2017-11-01T21:15:31.889Z,18.30
2017-11-01T21:18:01.225Z,18.30
2017-11-01T21:20:30.698Z,18.20
2017-11-01T21:23:00.210Z,18.20
2017-11-01T21:25:31.785Z,18.20
2017-11-01T21:28:01.053Z,18.10
2017-11-01T21:30:30.323Z,18.10
2017-11-01T21:33:00.298Z,18.10
2017-11-01T21:35:29.552Z,18.10
2017-11-01T21:37:58.504Z,18.10
2017-11-01T21:40:28.073Z,18.10
2017-11-01T21:42:56.961Z,18.10
2017-11-01T21:45:25.844Z,18.20
2017-11-01T21:47:54.748Z,18.20
2017-11-01T21:50:24.037Z,18.10
2017-11-01T21:52:52.945Z,18.20
2017-11-01T21:55:23.085Z,18.20
2017-11-01T21:57:51.947Z,18.20
2017-11-01T22:00:20.744Z,15.70
2017-11-01T22:02:50.447Z,18.30
2017-11-01T22:05:20.155Z,18.30
2017-11-01T22:07:49.047Z,18.30
2017-11-01T22:10:17.990Z,18.30
2017-11-01T22:12:47.565Z,18.30
2017-11-01T22:15:16.956Z,18.30
2017-11-01T22:17:45.746Z,18.30
2017-11-01T22:20:14.465Z,18.40
2017-11-01T22:22:43.318Z,18.40
2017-11-01T22:25:13.210Z,18.40
2017-11-01T22:27:43.042Z,18.40
2017-11-01T22:30:11.829Z,18.40
2017-11-01T22:32:40.923Z,18.40
2017-11-01T22:35:09.816Z,18.40
2017-11-01T22:37:38.503Z,18.40
2017-11-01T22:40:07.396Z,18.40
2017-11-01T22:42:36.558Z,18.40
2017-11-01T22:45:05.385Z,18.40
2017-11-01T22:47:34.275Z,18.40
2017-11-01T22:50:04.192Z,18.40
2017-11-01T22:52:33.082Z,18.40
2017-11-01T22:55:01.973Z,18.40
2017-11-01T22:57:31.189Z,18.40
2017-11-01T23:00:00.775Z,18.40
2017-11-01T23:02:31.076Z,18.50
2017-11-01T23:04:59.786Z,18.50
2017-11-01T23:07:29.301Z,18.50
2017-11-01T23:09:58.285Z,18.50
2017-11-01T23:12:27.779Z,18.50
2017-11-01T23:14:56.681Z,18.50
2017-11-01T23:17:25.573Z,18.50
2017-11-01T23:19:54.600Z,18.50
2017-11-01T23:22:23.362Z,18.50
2017-11-01T23:24:53.072Z,18.50
2017-11-01T23:27:22.372Z,18.50
2017-11-01T23:29:51.465Z,18.50
2017-11-01T23:32:20.361Z,18.50
2017-11-01T23:34:49.258Z,18.60
2017-11-01T23:37:18.134Z,18.60
2017-11-01T23:39:46.790Z,18.60
2017-11-01T23:42:15.514Z,18.60
2017-11-01T23:44:44.460Z,18.50
2017-11-01T23:47:13.153Z,18.50
2017-11-01T23:49:41.863Z,18.50
2017-11-01T23:52:10.720Z,18.50
2017-11-01T23:54:39.469Z,18.50
2017-11-01T23:57:08.226Z,18.50
2017-11-01T23:59:37.180Z,18.60
